sensor_id;sensor_type;location;lat;lon;timestamp;pressure;altitude;pressure_sealevel;temperature;humidity
56789;BME280;42657;51.650;17.780;2022-12-29T00:02:52;99812.44;;;4.61;76.46
56789;BME280;42657;51.650;17.780;2022-12-29T00:05:55;99803.04;;;4.61;76.43
56789;BME280;42657;51.650;17.780;2022-12-29T00:08:57;99802.45;;;4.61;76.45
56789;BME280;42657;51.650;17.780;2022-12-29T00:11:59;99795.55;;;4.60;76.43
56789;BME280;42657;51.650;17.780;2022-12-29T00:15:01;99786.69;;;4.59;76.43
56789;BME280;42657;51.650;17.780;2022-12-29T00:18:02;99778.53;;;4.63;76.47
56789;BME280;42657;51.650;17.780;2022-12-29T00:21:04;99760.45;;;4.65;76.46
56789;BME280;42657;51.650;17.780;2022-12-29T00:24:08;99750.86;;;4.66;76.42
56789;BME280;42657;51.650;17.780;2022-12-29T00:27:12;99751.39;;;4.66;76.28
56789;BME280;42657;51.650;17.780;2022-12-29T00:30:19;99764.85;;;4.64;76.21
56789;BME280;42657;51.650;17.780;2022-12-29T00:33:26;99769.30;;;4.60;75.91
56789;BME280;42657;51.650;17.780;2022-12-29T00:36:38;99762.41;;;4.56;76.10
56789;BME280;42657;51.650;17.780;2022-12-29T00:39:40;99750.09;;;4.49;76.10
56789;BME280;42657;51.650;17.780;2022-12-29T00:42:42;99747.44;;;4.46;76.02
56789;BME280;42657;51.650;17.780;2022-12-29T00:45:43;99747.67;;;4.42;76.01
56789;BME280;42657;51.650;17.780;2022-12-29T00:48:45;99742.50;;;4.42;76.14
56789;BME280;42657;51.650;17.780;2022-12-29T00:51:47;99751.89;;;4.40;76.24
56789;BME280;42657;51.650;17.780;2022-12-29T00:54:49;99755.06;;;4.36;76.12
56789;BME280;42657;51.650;17.780;2022-12-29T00:57:50;99751.48;;;4.34;76.05
56789;BME280;42657;51.650;17.780;2022-12-29T01:00:52;99746.36;;;4.31;76.00
56789;BME280;42657;51.650;17.780;2022-12-29T01:03:54;99753.24;;;4.28;76.09
56789;BME280;42657;51.650;17.780;2022-12-29T01:06:55;99745.47;;;4.22;76.21
56789;BME280;42657;51.650;17.780;2022-12-29T01:09:57;99738.12;;;4.20;76.22
56789;BME280;42657;51.650;17.780;2022-12-29T01:13:36;99733.90;;;4.16;76.14
56789;BME280;42657;51.650;17.780;2022-12-29T01:16:38;99729.80;;;4.11;76.29
56789;BME280;42657;51.650;17.780;2022-12-29T01:19:39;99737.67;;;4.07;76.28
56789;BME280;42657;51.650;17.780;2022-12-29T01:22:41;99738.02;;;4.06;76.33
56789;BME280;42657;51.650;17.780;2022-12-29T01:25:42;99735.33;;;4.05;76.45
56789;BME280;42657;51.650;17.780;2022-12-29T01:28:45;99737.34;;;4.03;76.40
56789;BME280;42657;51.650;17.780;2022-12-29T01:31:46;99732.30;;;4.02;76.63
56789;BME280;42657;51.650;17.780;2022-12-29T01:34:48;99729.53;;;4.01;76.48
56789;BME280;42657;51.650;17.780;2022-12-29T01:37:50;99728.07;;;4.02;76.73
56789;BME280;42657;51.650;17.780;2022-12-29T01:40:51;99724.98;;;4.05;76.55
56789;BME280;42657;51.650;17.780;2022-12-29T01:43:55;99719.96;;;4.07;76.66
56789;BME280;42657;51.650;17.780;2022-12-29T01:46:57;99715.41;;;4.08;76.59
56789;BME280;42657;51.650;17.780;2022-12-29T01:50:06;99710.66;;;4.10;76.50
56789;BME280;42657;51.650;17.780;2022-12-29T01:53:17;99707.00;;;4.13;76.47
56789;BME280;42657;51.650;17.780;2022-12-29T01:56:20;99699.28;;;4.16;76.52
56789;BME280;42657;51.650;17.780;2022-12-29T01:59:26;99692.88;;;4.15;76.41
56789;BME280;42657;51.650;17.780;2022-12-29T02:02:30;99693.19;;;4.15;76.28
56789;BME280;42657;51.650;17.780;2022-12-29T02:05:48;99691.18;;;4.16;76.29
56789;BME280;42657;51.650;17.780;2022-12-29T02:08:53;99682.36;;;4.14;76.36
56789;BME280;42657;51.650;17.780;2022-12-29T02:11:56;99682.31;;;4.12;76.22
56789;BME280;42657;51.650;17.780;2022-12-29T02:15:00;99679.59;;;4.11;76.18
56789;BME280;42657;51.650;17.780;2022-12-29T02:18:14;99675.54;;;4.10;76.26
56789;BME280;42657;51.650;17.780;2022-12-29T02:31:29;99656.64;;;4.23;76.05
56789;BME280;42657;51.650;17.780;2022-12-29T02:41:36;99646.09;;;4.30;76.02
56789;BME280;42657;51.650;17.780;2022-12-29T02:44:57;99637.25;;;4.33;76.00
56789;BME280;42657;51.650;17.780;2022-12-29T02:48:10;99646.02;;;4.41;76.00
56789;BME280;42657;51.650;17.780;2022-12-29T02:51:27;99645.38;;;4.48;75.77
56789;BME280;42657;51.650;17.780;2022-12-29T02:54:32;99647.66;;;4.52;75.83
56789;BME280;42657;51.650;17.780;2022-12-29T02:57:34;99645.63;;;4.55;75.70
56789;BME280;42657;51.650;17.780;2022-12-29T03:00:43;99637.55;;;4.57;75.52
56789;BME280;42657;51.650;17.780;2022-12-29T03:17:39;99611.88;;;4.46;75.46
56789;BME280;42657;51.650;17.780;2022-12-29T03:23:49;99621.11;;;4.44;75.19
56789;BME280;42657;51.650;17.780;2022-12-29T03:26:53;99612.58;;;4.46;75.12
56789;BME280;42657;51.650;17.780;2022-12-29T03:30:00;99619.86;;;4.45;74.93
56789;BME280;42657;51.650;17.780;2022-12-29T03:33:06;99611.70;;;4.43;75.01
56789;BME280;42657;51.650;17.780;2022-12-29T03:36:13;99614.04;;;4.42;74.84
56789;BME280;42657;51.650;17.780;2022-12-29T03:39:18;99608.98;;;4.45;74.99
56789;BME280;42657;51.650;17.780;2022-12-29T03:42:26;99609.11;;;4.49;75.05
56789;BME280;42657;51.650;17.780;2022-12-29T03:45:29;99612.61;;;4.53;74.90
56789;BME280;42657;51.650;17.780;2022-12-29T03:48:31;99615.38;;;4.55;74.69
56789;BME280;42657;51.650;17.780;2022-12-29T03:51:32;99608.69;;;4.57;74.62
56789;BME280;42657;51.650;17.780;2022-12-29T03:54:34;99607.64;;;4.60;74.49
56789;BME280;42657;51.650;17.780;2022-12-29T03:57:35;99608.02;;;4.66;74.54
56789;BME280;42657;51.650;17.780;2022-12-29T04:00:37;99609.84;;;4.70;74.21
56789;BME280;42657;51.650;17.780;2022-12-29T04:03:38;99614.59;;;4.74;74.17
56789;BME280;42657;51.650;17.780;2022-12-29T04:06:41;99616.40;;;4.76;74.15
56789;BME280;42657;51.650;17.780;2022-12-29T04:09:42;99611.30;;;4.79;74.27
56789;BME280;42657;51.650;17.780;2022-12-29T04:12:44;99613.46;;;4.83;74.24
56789;BME280;42657;51.650;17.780;2022-12-29T04:15:45;99610.87;;;4.85;74.62
56789;BME280;42657;51.650;17.780;2022-12-29T04:18:47;99610.30;;;4.83;74.61
56789;BME280;42657;51.650;17.780;2022-12-29T04:21:48;99597.92;;;4.80;74.75
56789;BME280;42657;51.650;17.780;2022-12-29T04:24:50;99598.25;;;4.81;74.92
56789;BME280;42657;51.650;17.780;2022-12-29T04:27:51;99590.53;;;4.81;74.86
56789;BME280;42657;51.650;17.780;2022-12-29T04:30:53;99588.58;;;4.83;75.03
56789;BME280;42657;51.650;17.780;2022-12-29T04:33:55;99593.82;;;4.84;74.88
56789;BME280;42657;51.650;17.780;2022-12-29T04:36:56;99589.38;;;4.83;75.06
56789;BME280;42657;51.650;17.780;2022-12-29T04:39:57;99581.54;;;4.84;75.08
56789;BME280;42657;51.650;17.780;2022-12-29T04:42:59;99578.38;;;4.86;75.12
56789;BME280;42657;51.650;17.780;2022-12-29T04:46:00;99576.30;;;4.89;75.12
56789;BME280;42657;51.650;17.780;2022-12-29T04:49:02;99573.40;;;4.90;75.29
56789;BME280;42657;51.650;17.780;2022-12-29T04:52:03;99568.98;;;4.89;75.53
56789;BME280;42657;51.650;17.780;2022-12-29T04:55:05;99572.92;;;4.88;75.78
56789;BME280;42657;51.650;17.780;2022-12-29T04:58:07;99578.18;;;4.89;75.87
56789;BME280;42657;51.650;17.780;2022-12-29T05:01:08;99582.55;;;4.86;76.09
56789;BME280;42657;51.650;17.780;2022-12-29T05:04:10;99581.95;;;4.83;76.05
56789;BME280;42657;51.650;17.780;2022-12-29T05:07:12;99589.39;;;4.80;76.35
56789;BME280;42657;51.650;17.780;2022-12-29T05:10:13;99583.55;;;4.79;76.31
56789;BME280;42657;51.650;17.780;2022-12-29T05:13:15;99584.77;;;4.77;76.51
56789;BME280;42657;51.650;17.780;2022-12-29T05:16:16;99583.26;;;4.75;76.42
56789;BME280;42657;51.650;17.780;2022-12-29T05:19:18;99584.39;;;4.76;76.49
56789;BME280;42657;51.650;17.780;2022-12-29T05:22:20;99590.46;;;4.78;76.42
56789;BME280;42657;51.650;17.780;2022-12-29T05:25:21;99585.13;;;4.81;76.35
56789;BME280;42657;51.650;17.780;2022-12-29T05:28:26;99574.33;;;4.80;76.24
56789;BME280;42657;51.650;17.780;2022-12-29T05:31:27;99567.64;;;4.80;76.31
56789;BME280;42657;51.650;17.780;2022-12-29T05:34:29;99564.95;;;4.81;76.25
56789;BME280;42657;51.650;17.780;2022-12-29T05:37:31;99561.18;;;4.83;76.04
56789;BME280;42657;51.650;17.780;2022-12-29T05:40:32;99548.79;;;4.82;75.60
56789;BME280;42657;51.650;17.780;2022-12-29T05:43:34;99551.67;;;4.79;75.86
56789;BME280;42657;51.650;17.780;2022-12-29T05:46:35;99545.70;;;4.79;75.68
56789;BME280;42657;51.650;17.780;2022-12-29T05:49:37;99537.89;;;4.81;75.76
56789;BME280;42657;51.650;17.780;2022-12-29T05:56:18;99533.33;;;4.86;75.51
56789;BME280;42657;51.650;17.780;2022-12-29T05:59:20;99537.38;;;4.88;75.67
56789;BME280;42657;51.650;17.780;2022-12-29T06:02:21;99535.98;;;4.91;75.35
56789;BME280;42657;51.650;17.780;2022-12-29T06:05:23;99531.81;;;4.96;75.22
56789;BME280;42657;51.650;17.780;2022-12-29T06:08:25;99530.69;;;5.02;75.07
56789;BME280;42657;51.650;17.780;2022-12-29T06:11:26;99532.60;;;5.04;74.78
56789;BME280;42657;51.650;17.780;2022-12-29T06:14:28;99528.86;;;5.06;74.77
56789;BME280;42657;51.650;17.780;2022-12-29T06:17:30;99536.39;;;5.09;74.79
56789;BME280;42657;51.650;17.780;2022-12-29T06:20:31;99533.89;;;5.16;74.55
56789;BME280;42657;51.650;17.780;2022-12-29T06:23:36;99534.39;;;5.20;74.31
56789;BME280;42657;51.650;17.780;2022-12-29T06:26:38;99539.37;;;5.24;74.22
56789;BME280;42657;51.650;17.780;2022-12-29T06:29:39;99540.35;;;5.25;74.13
56789;BME280;42657;51.650;17.780;2022-12-29T06:32:41;99540.84;;;5.28;73.96
56789;BME280;42657;51.650;17.780;2022-12-29T06:35:43;99538.60;;;5.32;73.63
56789;BME280;42657;51.650;17.780;2022-12-29T06:38:44;99537.86;;;5.38;73.28
56789;BME280;42657;51.650;17.780;2022-12-29T06:41:46;99531.34;;;5.42;73.25
56789;BME280;42657;51.650;17.780;2022-12-29T06:44:50;99532.39;;;5.43;73.03
56789;BME280;42657;51.650;17.780;2022-12-29T06:47:52;99532.52;;;5.45;72.84
56789;BME280;42657;51.650;17.780;2022-12-29T06:50:53;99537.60;;;5.51;72.77
56789;BME280;42657;51.650;17.780;2022-12-29T06:53:55;99536.02;;;5.56;72.51
56789;BME280;42657;51.650;17.780;2022-12-29T06:56:56;99528.70;;;5.60;72.41
56789;BME280;42657;51.650;17.780;2022-12-29T06:59:58;99529.16;;;5.62;72.19
56789;BME280;42657;51.650;17.780;2022-12-29T07:03:00;99540.09;;;5.66;71.88
56789;BME280;42657;51.650;17.780;2022-12-29T07:06:03;99544.20;;;5.72;71.43
56789;BME280;42657;51.650;17.780;2022-12-29T07:09:04;99548.87;;;5.81;71.04
56789;BME280;42657;51.650;17.780;2022-12-29T07:12:06;99545.85;;;5.86;70.96
56789;BME280;42657;51.650;17.780;2022-12-29T07:15:08;99540.35;;;5.89;70.77
56789;BME280;42657;51.650;17.780;2022-12-29T07:18:09;99545.15;;;5.93;70.48
56789;BME280;42657;51.650;17.780;2022-12-29T07:21:11;99544.95;;;5.98;70.21
56789;BME280;42657;51.650;17.780;2022-12-29T07:24:13;99542.13;;;6.03;70.11
56789;BME280;42657;51.650;17.780;2022-12-29T07:27:14;99547.01;;;6.09;70.17
56789;BME280;42657;51.650;17.780;2022-12-29T07:30:16;99550.70;;;6.12;69.97
56789;BME280;42657;51.650;17.780;2022-12-29T07:33:18;99551.45;;;6.15;69.70
56789;BME280;42657;51.650;17.780;2022-12-29T07:36:19;99544.81;;;6.19;69.63
56789;BME280;42657;51.650;17.780;2022-12-29T07:39:21;99538.98;;;6.24;69.54
56789;BME280;42657;51.650;17.780;2022-12-29T07:42:23;99540.59;;;6.31;69.48
56789;BME280;42657;51.650;17.780;2022-12-29T07:45:24;99529.43;;;6.37;69.62
56789;BME280;42657;51.650;17.780;2022-12-29T07:48:26;99532.38;;;6.41;69.38
56789;BME280;42657;51.650;17.780;2022-12-29T07:51:28;99537.81;;;6.47;69.17
56789;BME280;42657;51.650;17.780;2022-12-29T07:54:30;99536.83;;;6.54;68.75
56789;BME280;42657;51.650;17.780;2022-12-29T07:57:31;99540.72;;;6.61;68.92
56789;BME280;42657;51.650;17.780;2022-12-29T08:00:33;99547.95;;;6.66;68.67
56789;BME280;42657;51.650;17.780;2022-12-29T08:03:34;99549.36;;;6.68;68.71
56789;BME280;42657;51.650;17.780;2022-12-29T08:06:36;99553.14;;;6.71;68.65
56789;BME280;42657;51.650;17.780;2022-12-29T08:09:37;99555.69;;;6.73;68.79
56789;BME280;42657;51.650;17.780;2022-12-29T08:12:40;99552.51;;;6.76;68.44
56789;BME280;42657;51.650;17.780;2022-12-29T08:15:42;99553.22;;;6.81;68.65
56789;BME280;42657;51.650;17.780;2022-12-29T08:18:44;99543.04;;;6.91;68.48
56789;BME280;42657;51.650;17.780;2022-12-29T08:21:45;99543.99;;;7.01;68.29
56789;BME280;42657;51.650;17.780;2022-12-29T08:24:47;99540.41;;;7.08;68.14
56789;BME280;42657;51.650;17.780;2022-12-29T08:27:48;99548.83;;;7.12;68.10
56789;BME280;42657;51.650;17.780;2022-12-29T08:30:50;99550.92;;;7.17;68.04
56789;BME280;42657;51.650;17.780;2022-12-29T08:33:52;99551.11;;;7.25;67.73
56789;BME280;42657;51.650;17.780;2022-12-29T08:36:53;99546.77;;;7.37;67.57
56789;BME280;42657;51.650;17.780;2022-12-29T08:39:55;99539.95;;;7.46;67.14
56789;BME280;42657;51.650;17.780;2022-12-29T08:42:56;99542.95;;;7.51;66.90
56789;BME280;42657;51.650;17.780;2022-12-29T08:45:59;99544.84;;;7.55;66.75
56789;BME280;42657;51.650;17.780;2022-12-29T08:49:01;99538.84;;;7.61;66.58
56789;BME280;42657;51.650;17.780;2022-12-29T08:52:03;99535.84;;;7.61;65.92
56789;BME280;42657;51.650;17.780;2022-12-29T08:55:05;99535.81;;;7.65;66.06
56789;BME280;42657;51.650;17.780;2022-12-29T08:58:07;99535.80;;;7.69;66.05
56789;BME280;42657;51.650;17.780;2022-12-29T09:01:09;99531.11;;;7.74;66.10
56789;BME280;42657;51.650;17.780;2022-12-29T09:04:11;99525.56;;;7.79;65.53
56789;BME280;42657;51.650;17.780;2022-12-29T09:07:13;99530.89;;;7.80;65.20
56789;BME280;42657;51.650;17.780;2022-12-29T09:10:14;99528.27;;;7.87;65.03
56789;BME280;42657;51.650;17.780;2022-12-29T09:13:17;99536.95;;;7.94;65.17
56789;BME280;42657;51.650;17.780;2022-12-29T09:16:21;99533.45;;;8.00;64.54
56789;BME280;42657;51.650;17.780;2022-12-29T09:19:23;99533.83;;;8.07;64.15
56789;BME280;42657;51.650;17.780;2022-12-29T09:22:24;99536.95;;;8.13;63.82
56789;BME280;42657;51.650;17.780;2022-12-29T09:25:26;99540.00;;;8.19;63.95
56789;BME280;42657;51.650;17.780;2022-12-29T09:28:28;99540.16;;;8.26;63.53
56789;BME280;42657;51.650;17.780;2022-12-29T09:31:31;99546.15;;;8.32;63.59
56789;BME280;42657;51.650;17.780;2022-12-29T09:34:32;99545.58;;;8.36;63.09
56789;BME280;42657;51.650;17.780;2022-12-29T09:37:34;99543.73;;;8.43;63.41
56789;BME280;42657;51.650;17.780;2022-12-29T09:40:35;99537.84;;;8.49;63.15
56789;BME280;42657;51.650;17.780;2022-12-29T09:44:19;99539.20;;;8.55;62.66
56789;BME280;42657;51.650;17.780;2022-12-29T09:47:24;99539.02;;;8.60;62.75
56789;BME280;42657;51.650;17.780;2022-12-29T09:50:35;99535.64;;;8.64;62.79
56789;BME280;42657;51.650;17.780;2022-12-29T09:53:41;99536.30;;;8.68;63.07
56789;BME280;42657;51.650;17.780;2022-12-29T09:56:44;99534.98;;;8.73;62.53
56789;BME280;42657;51.650;17.780;2022-12-29T09:59:50;99539.35;;;8.80;62.51
56789;BME280;42657;51.650;17.780;2022-12-29T10:02:55;99544.11;;;8.87;62.14
56789;BME280;42657;51.650;17.780;2022-12-29T10:06:27;99538.55;;;8.91;62.07
56789;BME280;42657;51.650;17.780;2022-12-29T10:09:49;99533.70;;;8.90;62.07
56789;BME280;42657;51.650;17.780;2022-12-29T10:13:16;99527.34;;;8.87;61.68
56789;BME280;42657;51.650;17.780;2022-12-29T10:26:17;99512.34;;;9.02;61.83
56789;BME280;42657;51.650;17.780;2022-12-29T10:29:22;99505.96;;;9.09;61.61
56789;BME280;42657;51.650;17.780;2022-12-29T10:33:21;99506.98;;;9.13;61.13
56789;BME280;42657;51.650;17.780;2022-12-29T10:36:12;99506.46;;;9.23;61.34
56789;BME280;42657;51.650;17.780;2022-12-29T10:42:41;99502.45;;;9.50;61.00
56789;BME280;42657;51.650;17.780;2022-12-29T10:45:44;99509.50;;;9.59;60.89
56789;BME280;42657;51.650;17.780;2022-12-29T10:48:46;99502.98;;;9.57;60.50
56789;BME280;42657;51.650;17.780;2022-12-29T10:51:48;99504.81;;;9.54;60.46
56789;BME280;42657;51.650;17.780;2022-12-29T10:55:05;99498.36;;;9.51;60.20
56789;BME280;42657;51.650;17.780;2022-12-29T10:58:12;99487.86;;;9.50;60.41
56789;BME280;42657;51.650;17.780;2022-12-29T11:01:14;99488.95;;;9.50;60.32
56789;BME280;42657;51.650;17.780;2022-12-29T11:07:33;99477.27;;;9.62;60.40
56789;BME280;42657;51.650;17.780;2022-12-29T11:10:41;99477.69;;;9.74;59.96
56789;BME280;42657;51.650;17.780;2022-12-29T11:17:01;99472.70;;;9.93;59.45
56789;BME280;42657;51.650;17.780;2022-12-29T11:20:27;99471.07;;;10.03;59.10
56789;BME280;42657;51.650;17.780;2022-12-29T11:23:37;99468.25;;;10.12;58.76
56789;BME280;42657;51.650;17.780;2022-12-29T11:26:39;99461.44;;;10.20;58.37
56789;BME280;42657;51.650;17.780;2022-12-29T11:29:42;99463.35;;;10.26;58.24
56789;BME280;42657;51.650;17.780;2022-12-29T11:32:51;99464.90;;;10.31;58.26
56789;BME280;42657;51.650;17.780;2022-12-29T11:35:57;99460.74;;;10.34;58.45
56789;BME280;42657;51.650;17.780;2022-12-29T11:38:59;99463.42;;;10.35;58.32
56789;BME280;42657;51.650;17.780;2022-12-29T11:42:02;99464.88;;;10.36;58.58
56789;BME280;42657;51.650;17.780;2022-12-29T11:45:09;99465.33;;;10.34;58.17
56789;BME280;42657;51.650;17.780;2022-12-29T11:48:20;99461.87;;;10.36;58.39
56789;BME280;42657;51.650;17.780;2022-12-29T11:51:39;99463.81;;;10.32;58.49
56789;BME280;42657;51.650;17.780;2022-12-29T11:54:44;99462.30;;;10.21;57.72
56789;BME280;42657;51.650;17.780;2022-12-29T11:57:46;99458.19;;;10.11;58.11
56789;BME280;42657;51.650;17.780;2022-12-29T12:00:49;99458.48;;;10.03;58.19
56789;BME280;42657;51.650;17.780;2022-12-29T12:04:06;99455.31;;;10.00;58.24
56789;BME280;42657;51.650;17.780;2022-12-29T12:07:14;99454.82;;;9.99;58.25
56789;BME280;42657;51.650;17.780;2022-12-29T12:10:25;99452.23;;;9.97;58.15
56789;BME280;42657;51.650;17.780;2022-12-29T12:16:59;99454.08;;;9.97;58.59
56789;BME280;42657;51.650;17.780;2022-12-29T12:23:42;99445.77;;;9.86;58.49
56789;BME280;42657;51.650;17.780;2022-12-29T12:26:59;99442.27;;;9.79;59.18
56789;BME280;42657;51.650;17.780;2022-12-29T12:30:23;99440.85;;;9.65;58.80
56789;BME280;42657;51.650;17.780;2022-12-29T12:33:36;99435.17;;;9.47;59.22
56789;BME280;42657;51.650;17.780;2022-12-29T12:43:55;99443.56;;;9.39;59.99
56789;BME280;42657;51.650;17.780;2022-12-29T12:47:16;99434.20;;;9.51;59.73
56789;BME280;42657;51.650;17.780;2022-12-29T12:50:42;99437.91;;;9.49;59.84
56789;BME280;42657;51.650;17.780;2022-12-29T12:57:34;99433.84;;;9.43;60.14
56789;BME280;42657;51.650;17.780;2022-12-29T13:01:12;99435.61;;;9.27;60.58
56789;BME280;42657;51.650;17.780;2022-12-29T13:26:03;99439.16;;;8.31;63.32
56789;BME280;42657;51.650;17.780;2022-12-29T13:29:12;99445.14;;;8.24;63.57
56789;BME280;42657;51.650;17.780;2022-12-29T13:33:01;99450.96;;;8.20;63.72
56789;BME280;42657;51.650;17.780;2022-12-29T13:35:51;99458.62;;;8.15;64.08
56789;BME280;42657;51.650;17.780;2022-12-29T13:42:18;99454.62;;;8.08;64.25
56789;BME280;42657;51.650;17.780;2022-12-29T13:45:24;99458.86;;;8.08;64.27
56789;BME280;42657;51.650;17.780;2022-12-29T13:48:51;99455.38;;;8.11;64.26
56789;BME280;42657;51.650;17.780;2022-12-29T13:58:54;99460.75;;;8.01;64.44
56789;BME280;42657;51.650;17.780;2022-12-29T14:02:19;99459.27;;;7.97;64.57
56789;BME280;42657;51.650;17.780;2022-12-29T14:08:24;99460.60;;;7.85;64.72
56789;BME280;42657;51.650;17.780;2022-12-29T14:11:32;99461.61;;;7.76;64.87
56789;BME280;42657;51.650;17.780;2022-12-29T14:14:34;99464.09;;;7.68;65.19
56789;BME280;42657;51.650;17.780;2022-12-29T14:17:40;99468.27;;;7.59;65.35
56789;BME280;42657;51.650;17.780;2022-12-29T14:30:51;99470.45;;;7.30;66.31
56789;BME280;42657;51.650;17.780;2022-12-29T14:40:27;99474.71;;;7.04;67.08
56789;BME280;42657;51.650;17.780;2022-12-29T14:43:29;99473.04;;;6.96;67.41
56789;BME280;42657;51.650;17.780;2022-12-29T14:47:05;99470.36;;;6.91;67.45
56789;BME280;42657;51.650;17.780;2022-12-29T14:50:14;99468.74;;;6.85;67.85
56789;BME280;42657;51.650;17.780;2022-12-29T14:53:42;99472.31;;;6.78;67.94
56789;BME280;42657;51.650;17.780;2022-12-29T14:56:44;99472.78;;;6.71;68.24
56789;BME280;42657;51.650;17.780;2022-12-29T14:59:47;99474.86;;;6.67;68.32
56789;BME280;42657;51.650;17.780;2022-12-29T15:06:29;99478.32;;;6.51;68.77
56789;BME280;42657;51.650;17.780;2022-12-29T15:09:52;99481.34;;;6.43;68.99
56789;BME280;42657;51.650;17.780;2022-12-29T15:13:03;99479.19;;;6.41;69.21
56789;BME280;42657;51.650;17.780;2022-12-29T15:19:28;99479.06;;;6.45;69.55
56789;BME280;42657;51.650;17.780;2022-12-29T15:22:30;99481.90;;;6.50;69.58
56789;BME280;42657;51.650;17.780;2022-12-29T15:25:32;99478.48;;;6.59;69.44
56789;BME280;42657;51.650;17.780;2022-12-29T15:28:39;99473.94;;;6.69;69.36
56789;BME280;42657;51.650;17.780;2022-12-29T15:31:47;99473.30;;;6.79;69.43
56789;BME280;42657;51.650;17.780;2022-12-29T15:34:52;99478.18;;;6.87;69.37
56789;BME280;42657;51.650;17.780;2022-12-29T15:37:54;99481.69;;;6.95;69.31
56789;BME280;42657;51.650;17.780;2022-12-29T15:41:04;99478.06;;;7.01;69.27
56789;BME280;42657;51.650;17.780;2022-12-29T15:44:28;99484.08;;;7.09;68.93
56789;BME280;42657;51.650;17.780;2022-12-29T15:47:31;99482.96;;;7.15;68.79
56789;BME280;42657;51.650;17.780;2022-12-29T15:50:35;99483.30;;;7.17;68.85
56789;BME280;42657;51.650;17.780;2022-12-29T15:53:37;99485.30;;;7.12;68.56
56789;BME280;42657;51.650;17.780;2022-12-29T15:56:40;99482.83;;;7.12;68.68
56789;BME280;42657;51.650;17.780;2022-12-29T15:59:46;99483.52;;;7.11;68.64
56789;BME280;42657;51.650;17.780;2022-12-29T16:02:48;99484.02;;;7.09;68.58
56789;BME280;42657;51.650;17.780;2022-12-29T16:06:07;99487.41;;;7.04;68.63
56789;BME280;42657;51.650;17.780;2022-12-29T16:09:18;99487.36;;;6.98;68.56
56789;BME280;42657;51.650;17.780;2022-12-29T16:12:33;99484.91;;;6.95;68.76
56789;BME280;42657;51.650;17.780;2022-12-29T16:15:35;99487.56;;;6.96;68.62
56789;BME280;42657;51.650;17.780;2022-12-29T16:18:37;99491.91;;;6.98;68.53
56789;BME280;42657;51.650;17.780;2022-12-29T16:21:39;99499.44;;;7.02;68.50
56789;BME280;42657;51.650;17.780;2022-12-29T16:24:42;99499.92;;;7.07;68.35
56789;BME280;42657;51.650;17.780;2022-12-29T16:27:43;99501.21;;;7.12;68.26
56789;BME280;42657;51.650;17.780;2022-12-29T16:30:46;99499.40;;;7.14;68.32
56789;BME280;42657;51.650;17.780;2022-12-29T16:33:53;99503.13;;;7.12;68.31
56789;BME280;42657;51.650;17.780;2022-12-29T16:36:58;99505.52;;;7.11;68.16
56789;BME280;42657;51.650;17.780;2022-12-29T16:40:29;99504.84;;;7.16;67.89
56789;BME280;42657;51.650;17.780;2022-12-29T16:43:33;99510.66;;;7.25;67.76
56789;BME280;42657;51.650;17.780;2022-12-29T16:46:37;99515.69;;;7.31;67.49
56789;BME280;42657;51.650;17.780;2022-12-29T16:49:48;99520.33;;;7.34;67.51
56789;BME280;42657;51.650;17.780;2022-12-29T16:52:51;99523.95;;;7.38;67.22
56789;BME280;42657;51.650;17.780;2022-12-29T16:55:53;99526.84;;;7.42;66.88
56789;BME280;42657;51.650;17.780;2022-12-29T16:59:05;99525.04;;;7.45;66.98
56789;BME280;42657;51.650;17.780;2022-12-29T17:02:14;99525.03;;;7.45;66.72
56789;BME280;42657;51.650;17.780;2022-12-29T17:05:17;99523.86;;;7.44;66.97
56789;BME280;42657;51.650;17.780;2022-12-29T17:08:20;99523.19;;;7.43;66.59
56789;BME280;42657;51.650;17.780;2022-12-29T17:11:33;99523.25;;;7.43;66.64
56789;BME280;42657;51.650;17.780;2022-12-29T17:14:39;99525.92;;;7.43;66.64
56789;BME280;42657;51.650;17.780;2022-12-29T17:17:43;99522.59;;;7.41;66.72
56789;BME280;42657;51.650;17.780;2022-12-29T17:20:45;99528.89;;;7.39;66.55
56789;BME280;42657;51.650;17.780;2022-12-29T17:23:47;99525.02;;;7.36;66.72
56789;BME280;42657;51.650;17.780;2022-12-29T17:26:51;99526.13;;;7.35;66.69
56789;BME280;42657;51.650;17.780;2022-12-29T17:29:57;99525.92;;;7.36;66.46
56789;BME280;42657;51.650;17.780;2022-12-29T17:33:04;99527.30;;;7.34;66.61
56789;BME280;42657;51.650;17.780;2022-12-29T17:36:06;99521.96;;;7.32;66.57
56789;BME280;42657;51.650;17.780;2022-12-29T17:39:08;99531.20;;;7.29;66.50
56789;BME280;42657;51.650;17.780;2022-12-29T17:42:10;99532.59;;;7.28;66.54
56789;BME280;42657;51.650;17.780;2022-12-29T17:45:17;99536.53;;;7.31;66.35
56789;BME280;42657;51.650;17.780;2022-12-29T17:48:20;99534.14;;;7.32;66.29
56789;BME280;42657;51.650;17.780;2022-12-29T17:51:22;99534.45;;;7.31;66.20
56789;BME280;42657;51.650;17.780;2022-12-29T17:54:25;99532.49;;;7.28;66.29
56789;BME280;42657;51.650;17.780;2022-12-29T17:57:26;99529.67;;;7.25;66.31
56789;BME280;42657;51.650;17.780;2022-12-29T18:00:29;99534.52;;;7.23;66.34
56789;BME280;42657;51.650;17.780;2022-12-29T18:03:36;99535.30;;;7.19;66.30
56789;BME280;42657;51.650;17.780;2022-12-29T18:06:38;99542.23;;;7.17;66.52
56789;BME280;42657;51.650;17.780;2022-12-29T18:09:40;99538.66;;;7.12;66.62
56789;BME280;42657;51.650;17.780;2022-12-29T18:12:44;99539.96;;;7.04;66.64
56789;BME280;42657;51.650;17.780;2022-12-29T18:15:46;99548.98;;;6.95;66.98
56789;BME280;42657;51.650;17.780;2022-12-29T18:18:48;99555.97;;;6.88;67.35
56789;BME280;42657;51.650;17.780;2022-12-29T18:21:50;99556.88;;;6.83;67.39
56789;BME280;42657;51.650;17.780;2022-12-29T18:24:53;99562.01;;;6.82;67.52
56789;BME280;42657;51.650;17.780;2022-12-29T18:27:55;99565.15;;;6.85;67.62
56789;BME280;42657;51.650;17.780;2022-12-29T18:30:58;99560.80;;;6.95;67.48
56789;BME280;42657;51.650;17.780;2022-12-29T18:34:06;99555.69;;;7.11;67.23
56789;BME280;42657;51.650;17.780;2022-12-29T18:37:13;99549.45;;;7.25;67.05